Time;durP1;ratioP1;P1;durP2;ratioP2;P2;SDS_P1;SDS_P2;PMS_P1;PMS_P2;Temp;Humidity;BMP_temperature;BMP_pressure;BME280_temperature;BME280_humidity;BME280_pressure;Samples;Min_cycle;Max_cycle;Signal;HPM_P1;HPM_P2
2023/10/28 00:00:58;;;;;;;19.70;7.35;;;;;;;9.07;100.00;99395.69;5021397;28;20053;-72
2023/10/28 00:03:26;;;;;;;19.05;7.53;;;;;;;9.04;100.00;99395.81;5013803;28;20048;-71
2023/10/28 00:05:53;;;;;;;21.98;8.02;;;;;;;9.00;100.00;99397.75;5018632;28;20118;-70
2023/10/28 00:08:21;;;;;;;20.05;8.02;;;;;;;8.99;100.00;99393.41;5013896;28;20577;-70
2023/10/28 00:10:48;;;;;;;15.35;7.22;;;;;;;8.99;100.00;99396.91;5009572;28;20053;-70
2023/10/28 00:13:15;;;;;;;19.17;8.13;;;;;;;8.98;100.00;99391.72;5013580;28;20046;-73
2023/10/28 00:15:43;;;;;;;18.48;7.75;;;;;;;8.97;100.00;99396.13;5024642;28;20041;-71
2023/10/28 00:18:10;;;;;;;16.23;6.43;;;;;;;8.95;100.00;99397.13;5029276;28;20465;-71
2023/10/28 00:20:38;;;;;;;16.58;6.80;;;;;;;8.95;100.00;99397.13;5019190;28;20038;-71
2023/10/28 00:23:06;;;;;;;20.08;7.53;;;;;;;8.94;100.00;99398.06;5022709;28;20041;-71
2023/10/28 00:25:34;;;;;;;19.75;7.57;;;;;;;8.96;100.00;99404.06;5019542;28;20054;-71
2023/10/28 00:28:01;;;;;;;17.45;7.97;;;;;;;8.95;100.00;99399.75;5005276;28;20703;-71
2023/10/28 00:30:29;;;;;;;17.67;7.68;;;;;;;8.95;100.00;99400.59;5019416;28;20502;-71
2023/10/28 00:33:00;;;;;;;20.27;8.52;;;;;;;8.94;100.00;99398.06;5018846;28;20130;-71
2023/10/28 00:35:28;;;;;;;21.17;8.45;;;;;;;8.94;100.00;99400.69;5015919;28;20088;-71
2023/10/28 00:37:56;;;;;;;16.98;7.75;;;;;;;8.93;100.00;99399.81;5004856;28;20052;-71
2023/10/28 00:40:31;;;;;;;22.20;8.27;;;;;;;8.94;100.00;99396.25;5003979;28;20038;-71
2023/10/28 00:43:00;;;;;;;17.42;7.22;;;;;;;8.97;100.00;99405.78;5010606;28;20561;-72
2023/10/28 00:45:28;;;;;;;19.52;7.70;;;;;;;8.98;100.00;99399.59;5021887;28;20107;-71
2023/10/28 00:47:56;;;;;;;14.90;7.20;;;;;;;8.98;100.00;99403.09;5008730;28;20050;-72
2023/10/28 00:50:24;;;;;;;16.30;7.07;;;;;;;9.01;100.00;99407.34;5008408;28;20143;-71
2023/10/28 00:52:54;;;;;;;15.85;7.38;;;;;;;9.05;100.00;99402.78;5014169;28;20139;-71
2023/10/28 00:55:23;;;;;;;17.58;7.03;;;;;;;9.06;100.00;99413.22;5019816;28;20133;-71
2023/10/28 00:57:51;;;;;;;17.10;6.85;;;;;;;9.06;100.00;99405.34;5024367;28;20100;-71
2023/10/28 01:00:20;;;;;;;16.40;6.80;;;;;;;9.10;100.00;99401.66;5019105;28;20052;-72
2023/10/28 01:02:48;;;;;;;15.80;6.20;;;;;;;9.14;100.00;99399.72;5031484;28;20046;-72
2023/10/28 01:05:16;;;;;;;16.48;6.30;;;;;;;9.16;100.00;99396.09;5021330;28;20056;-71
2023/10/28 01:07:46;;;;;;;14.23;6.18;;;;;;;9.21;100.00;99395.88;5021314;28;20044;-73
2023/10/28 01:10:33;;;;;;;15.35;6.00;;;;;;;9.24;100.00;99395.75;5026019;28;20617;-73
2023/10/28 01:13:01;;;;;;;12.85;6.38;;;;;;;9.27;100.00;99402.63;5026239;28;20138;-72
2023/10/28 01:15:28;;;;;;;15.27;5.20;;;;;;;9.28;100.00;99394.69;5018010;28;20058;-73
2023/10/28 01:17:57;;;;;;;15.38;5.20;;;;;;;9.32;100.00;99398.00;5023711;28;20345;-72
2023/10/28 01:20:24;;;;;;;12.32;5.15;;;;;;;9.32;100.00;99393.59;5022425;28;20048;-72
2023/10/28 01:22:52;;;;;;;12.73;5.20;;;;;;;9.37;100.00;99395.16;5018079;28;20056;-72
2023/10/28 01:25:20;;;;;;;11.35;5.30;;;;;;;9.37;100.00;99390.72;5014221;28;20072;-72
2023/10/28 01:27:48;;;;;;;11.90;4.60;;;;;;;9.41;100.00;99402.81;5024017;28;20045;-72
2023/10/28 01:30:16;;;;;;;9.82;5.03;;;;;;;9.44;100.00;99391.28;5019438;28;20136;-72
2023/10/28 01:32:44;;;;;;;10.10;4.43;;;;;;;9.47;100.00;99389.34;5026302;28;20049;-73
2023/10/28 01:35:13;;;;;;;18.23;5.05;;;;;;;9.52;100.00;99390.94;5027337;28;20111;-73
2023/10/28 01:37:42;;;;;;;10.40;4.30;;;;;;;9.55;100.00;99394.25;5016419;28;20121;-73
2023/10/28 01:40:13;;;;;;;14.77;4.78;;;;;;;9.58;100.00;99394.13;5013000;28;20042;-73
2023/10/28 01:42:45;;;;;;;12.07;4.45;;;;;;;9.63;100.00;99394.72;5009931;28;20597;-73
2023/10/28 01:45:18;;;;;;;11.27;4.15;;;;;;;9.63;100.00;99392.09;5036582;28;20046;-73
2023/10/28 01:47:45;;;;;;;11.75;4.05;;;;;;;9.68;100.00;99399.75;5033137;28;20508;-73
2023/10/28 01:50:12;;;;;;;11.93;4.00;;;;;;;9.70;100.00;99405.81;5010026;28;20045;-73
2023/10/28 01:52:42;;;;;;;8.88;3.83;;;;;;;9.71;100.00;99396.97;5007090;28;20054;-74
2023/10/28 01:55:11;;;;;;;10.30;3.65;;;;;;;9.74;100.00;99401.22;5023241;28;20049;-73
2023/10/28 01:57:39;;;;;;;12.10;3.60;;;;;;;9.76;100.00;99394.13;5027797;28;20104;-73
2023/10/28 02:00:12;;;;;;;11.30;3.75;;;;;;;9.77;100.00;99401.09;5041507;28;20053;-73
2023/10/28 02:02:44;;;;;;;9.55;3.38;;;;;;;9.79;100.00;99397.44;5030449;28;20405;-73
2023/10/28 02:05:12;;;;;;;12.27;4.25;;;;;;;9.82;100.00;99403.50;5017119;28;20099;-72
2023/10/28 02:07:40;;;;;;;11.18;3.47;;;;;;;9.83;100.00;99399.94;5025051;28;20042;-73
2023/10/28 02:10:08;;;;;;;12.23;3.90;;;;;;;9.83;100.00;99411.28;5034642;28;20060;-73
2023/10/28 02:12:35;;;;;;;10.88;3.15;;;;;;;9.83;100.00;99402.56;5006319;28;20042;-73
2023/10/28 02:15:05;;;;;;;6.32;2.95;;;;;;;9.83;100.00;99400.78;5021853;28;20070;-72
2023/10/28 02:17:32;;;;;;;8.48;3.05;;;;;;;9.86;100.00;99405.06;5039740;28;20609;-71
2023/10/28 02:19:59;;;;;;;11.25;3.10;;;;;;;9.85;100.00;99398.91;5030165;28;20045;-71
2023/10/28 02:22:26;;;;;;;7.80;2.70;;;;;;;9.86;100.00;99399.78;5015290;28;20057;-71
2023/10/28 02:24:53;;;;;;;6.00;2.65;;;;;;;9.84;100.00;99405.09;5006641;28;20128;-71
2023/10/28 02:27:20;;;;;;;5.78;2.40;;;;;;;9.82;100.00;99399.06;5022080;28;20045;-71
2023/10/28 02:29:47;;;;;;;7.68;2.30;;;;;;;9.81;100.00;99404.41;5014482;28;20092;-71
2023/10/28 02:32:15;;;;;;;6.40;2.08;;;;;;;9.81;100.00;99405.28;5035739;28;20240;-72
2023/10/28 02:34:42;;;;;;;8.93;2.20;;;;;;;9.81;100.00;99400.03;5020782;28;20046;-72
2023/10/28 02:37:10;;;;;;;7.47;2.10;;;;;;;9.79;100.00;99397.44;5009911;28;20042;-72
2023/10/28 02:39:38;;;;;;;4.50;1.88;;;;;;;9.79;100.00;99409.75;5008593;28;20112;-71
2023/10/28 02:42:05;;;;;;;4.00;1.75;;;;;;;9.78;100.00;99406.25;5024879;28;20045;-71
2023/10/28 02:44:33;;;;;;;4.60;1.67;;;;;;;9.77;100.00;99409.81;5055298;28;20510;-72
2023/10/28 02:47:00;;;;;;;5.28;1.60;;;;;;;9.77;100.00;99398.47;5020139;28;20058;-71
2023/10/28 02:49:27;;;;;;;4.80;1.42;;;;;;;9.75;100.00;99397.69;5009249;28;20049;-71
2023/10/28 02:51:54;;;;;;;2.78;1.42;;;;;;;9.74;100.00;99393.34;5020689;28;20045;-71
2023/10/28 02:54:21;;;;;;;4.28;1.48;;;;;;;9.74;100.00;99394.19;5007647;28;20076;-71
2023/10/28 02:56:49;;;;;;;4.10;1.30;;;;;;;9.73;100.00;99396.91;5019950;28;20041;-71
2023/10/28 02:59:16;;;;;;;3.53;1.40;;;;;;;9.73;100.00;99387.22;5009518;28;20049;-71
2023/10/28 03:01:43;;;;;;;3.85;1.23;;;;;;;9.73;100.00;99395.13;5006878;28;20041;-71
2023/10/28 03:04:11;;;;;;;4.25;1.45;;;;;;;9.73;100.00;99403.03;5025256;28;20054;-71
2023/10/28 03:06:39;;;;;;;5.63;1.48;;;;;;;9.72;100.00;99403.94;5015244;28;20069;-70
2023/10/28 03:09:06;;;;;;;3.90;1.35;;;;;;;9.72;100.00;99401.31;5006269;28;20133;-70
2023/10/28 03:11:33;;;;;;;3.80;1.30;;;;;;;9.73;100.00;99402.16;5025739;28;20384;-71
2023/10/28 03:14:01;;;;;;;5.10;2.00;;;;;;;9.71;100.00;99404.88;5007088;28;20042;-70
2023/10/28 03:16:28;;;;;;;5.50;1.83;;;;;;;9.72;100.00;99403.94;5018026;28;20049;-71
2023/10/28 03:18:56;;;;;;;3.58;1.38;;;;;;;9.72;100.00;99409.22;5017249;28;20045;-71
2023/10/28 03:21:24;;;;;;;3.63;1.50;;;;;;;9.72;100.00;99408.34;5018647;28;20145;-71
2023/10/28 03:23:51;;;;;;;4.00;1.50;;;;;;;9.72;100.00;99408.34;5006810;28;20038;-71
2023/10/28 03:26:18;;;;;;;4.03;1.65;;;;;;;9.73;100.00;99407.41;5017679;28;20421;-71
2023/10/28 03:28:46;;;;;;;4.18;1.85;;;;;;;9.74;100.00;99403.88;5024131;28;20045;-73
2023/10/28 03:31:13;;;;;;;5.63;1.95;;;;;;;9.73;100.00;99407.41;5017238;28;20083;-72
2023/10/28 03:33:41;;;;;;;4.15;1.83;;;;;;;9.73;100.00;99396.91;5027682;28;20061;-71
2023/10/28 03:36:11;;;;;;;4.95;1.67;;;;;;;9.74;100.00;99409.13;5022821;28;20069;-71
2023/10/28 03:38:38;;;;;;;4.13;1.60;;;;;;;9.74;100.00;99404.72;5019028;28;20057;-71
2023/10/28 03:41:08;;;;;;;5.47;1.60;;;;;;;9.74;100.00;99406.50;5029554;28;20121;-71
2023/10/28 03:43:35;;;;;;;5.18;1.95;;;;;;;9.75;100.00;99403.81;5021715;28;20112;-71
2023/10/28 03:46:03;;;;;;;4.65;1.65;;;;;;;9.76;100.00;99405.50;5014114;28;20042;-71
2023/10/28 03:48:31;;;;;;;4.63;1.65;;;;;;;9.77;100.00;99403.72;5020427;28;20168;-71
2023/10/28 03:51:01;;;;;;;5.45;1.92;;;;;;;9.76;100.00;99407.28;5022806;28;20124;-71
2023/10/28 03:53:29;;;;;;;6.18;2.00;;;;;;;9.78;100.00;99408.06;5023671;28;20111;-71
2023/10/28 03:55:56;;;;;;;3.95;1.70;;;;;;;9.78;100.00;99400.16;5024628;28;20053;-73
2023/10/28 03:58:23;;;;;;;5.05;1.75;;;;;;;9.78;100.00;99410.69;5022284;28;20099;-73
2023/10/28 04:00:53;;;;;;;3.03;1.83;;;;;;;9.80;100.00;99408.84;5029849;28;20443;-72
2023/10/28 04:03:22;;;;;;;5.25;2.00;;;;;;;9.79;100.00;99407.97;5034797;28;20652;-71
2023/10/28 04:05:51;;;;;;;6.60;2.00;;;;;;;9.80;100.00;99411.47;5022424;28;20156;-72
2023/10/28 04:08:18;;;;;;;4.78;2.30;;;;;;;9.81;100.00;99413.19;5022923;28;20068;-72
2023/10/28 04:10:46;;;;;;;3.83;1.88;;;;;;;9.81;100.00;99404.41;5023964;28;20110;-71
2023/10/28 04:13:14;;;;;;;6.28;2.08;;;;;;;9.81;100.00;99405.28;5025450;28;20045;-71
2023/10/28 04:15:41;;;;;;;4.63;2.10;;;;;;;9.82;100.00;99406.97;5023552;28;20054;-71
2023/10/28 04:18:08;;;;;;;3.83;2.08;;;;;;;9.82;100.00;99409.59;5017434;28;20609;-71
2023/10/28 04:20:37;;;;;;;2.75;1.92;;;;;;;9.81;100.00;99405.28;5009394;28;20050;-71
2023/10/28 04:23:05;;;;;;;5.88;2.30;;;;;;;9.80;100.00;99403.56;5025568;28;20568;-72
2023/10/28 04:25:34;;;;;;;5.30;2.42;;;;;;;9.77;100.00;99406.34;5015836;28;20655;-72
2023/10/28 04:28:01;;;;;;;4.55;2.28;;;;;;;9.73;100.00;99407.41;5028390;28;20046;-73
2023/10/28 04:30:30;;;;;;;4.55;2.40;;;;;;;9.68;100.00;99409.44;5027530;28;20107;-72
2023/10/28 04:32:57;;;;;;;3.78;2.05;;;;;;;9.61;100.00;99408.88;5042052;28;20041;-72
2023/10/28 04:35:24;;;;;;;5.28;2.17;;;;;;;9.55;100.00;99402.16;5021777;28;20055;-72
2023/10/28 04:37:58;;;;;;;4.65;2.63;;;;;;;9.49;100.00;99402.47;5025953;28;20556;-72
2023/10/28 04:40:25;;;;;;;5.65;2.38;;;;;;;9.47;100.00;99397.25;5025290;28;20121;-72
2023/10/28 04:42:53;;;;;;;4.85;2.70;;;;;;;9.46;100.00;99402.59;5024465;28;20125;-71
2023/10/28 04:45:23;;;;;;;6.57;2.60;;;;;;;9.48;100.00;99395.50;5041052;28;20092;-71
2023/10/28 04:47:55;;;;;;;6.43;2.58;;;;;;;9.49;100.00;99389.31;5027484;28;20541;-72
2023/10/28 04:50:22;;;;;;;6.15;2.60;;;;;;;9.50;100.00;99382.25;5046190;28;20458;-72
2023/10/28 04:52:49;;;;;;;5.47;2.42;;;;;;;9.48;100.00;99384.97;5026031;28;20443;-71
2023/10/28 04:55:16;;;;;;;5.95;2.60;;;;;;;9.48;100.00;99384.97;5025435;28;20571;-71
2023/10/28 04:57:43;;;;;;;5.45;2.90;;;;;;;9.49;100.00;99389.31;5048376;28;20623;-70
2023/10/28 05:00:13;;;;;;;5.43;2.70;;;;;;;9.49;100.00;99384.03;5027144;28;20401;-70
2023/10/28 05:02:40;;;;;;;7.53;3.20;;;;;;;9.50;100.00;99380.50;5025192;28;20046;-71
2023/10/28 05:05:07;;;;;;;4.85;2.83;;;;;;;9.50;100.00;99383.13;5022465;28;20029;-71
2023/10/28 05:07:35;;;;;;;9.27;3.13;;;;;;;9.53;100.00;99382.94;5020426;28;20045;-71
2023/10/28 05:10:03;;;;;;;6.85;2.67;;;;;;;9.54;100.00;99381.19;5020547;28;20037;-71
2023/10/28 05:12:32;;;;;;;5.90;2.80;;;;;;;9.55;100.00;99381.09;5025671;28;20084;-72
2023/10/28 05:14:59;;;;;;;7.13;3.10;;;;;;;9.55;100.00;99375.00;5027226;28;20041;-71
2023/10/28 05:17:26;;;;;;;4.63;2.75;;;;;;;9.55;100.00;99369.75;5020313;28;20050;-71
2023/10/28 05:19:53;;;;;;;6.70;3.30;;;;;;;9.54;100.00;99375.91;5017207;28;20046;-71
2023/10/28 05:22:20;;;;;;;5.72;3.53;;;;;;;9.57;100.00;99375.75;5027018;28;20092;-71
2023/10/28 05:24:47;;;;;;;9.75;3.90;;;;;;;9.56;100.00;99382.81;5023694;28;20549;-71
2023/10/28 05:27:14;;;;;;;6.85;3.38;;;;;;;9.58;100.00;99387.97;5018261;28;20081;-71
2023/10/28 05:29:41;;;;;;;7.25;3.22;;;;;;;9.58;100.00;99388.84;5020562;28;20046;-70
2023/10/28 05:32:08;;;;;;;6.28;3.10;;;;;;;9.60;100.00;99386.13;5021924;28;20073;-71
2023/10/28 05:34:36;;;;;;;8.40;3.08;;;;;;;9.60;100.00;99386.13;5024204;28;20575;-73
2023/10/28 05:37:03;;;;;;;6.60;3.28;;;;;;;9.61;100.00;99388.69;5035263;28;20045;-72
2023/10/28 05:39:30;;;;;;;9.25;3.60;;;;;;;9.61;100.00;99377.31;5021673;28;20052;-72
2023/10/28 05:41:58;;;;;;;7.50;3.15;;;;;;;9.61;100.00;99377.31;5026134;28;20523;-73
2023/10/28 05:44:25;;;;;;;7.97;2.90;;;;;;;9.62;100.00;99371.97;5031967;28;20505;-73
2023/10/28 05:46:52;;;;;;;8.30;2.97;;;;;;;9.63;100.00;99380.72;5026323;28;20074;-73
2023/10/28 05:49:19;;;;;;;7.28;2.80;;;;;;;9.63;100.00;99389.47;5026185;28;20072;-73
2023/10/28 05:51:46;;;;;;;7.25;3.00;;;;;;;9.62;100.00;99384.28;5021598;28;20076;-72
2023/10/28 05:54:13;;;;;;;6.25;2.97;;;;;;;9.62;100.00;99384.28;5030199;28;20749;-73
2023/10/28 05:56:40;;;;;;;7.20;2.85;;;;;;;9.62;100.00;99392.19;5015982;28;20064;-72
2023/10/28 05:59:14;;;;;;;5.72;2.97;;;;;;;9.61;100.00;99393.09;5026556;28;20049;-70
2023/10/28 06:01:41;;;;;;;4.57;2.65;;;;;;;9.62;100.00;99397.44;5035375;28;20045;-72
2023/10/28 06:04:12;;;;;;;4.47;2.80;;;;;;;9.62;100.00;99397.44;5005572;28;20127;-70
2023/10/28 06:06:39;;;;;;;7.00;2.60;;;;;;;9.65;100.00;99397.28;5018217;28;20128;-70
2023/10/28 06:09:09;;;;;;;5.90;2.58;;;;;;;9.66;100.00;99401.63;5007952;28;20576;-71
2023/10/28 06:11:37;;;;;;;6.53;3.00;;;;;;;9.67;100.00;99399.84;5020101;28;20056;-71
2023/10/28 06:14:04;;;;;;;8.27;3.20;;;;;;;9.68;100.00;99405.00;5025408;28;20509;-70
2023/10/28 06:16:31;;;;;;;7.63;2.97;;;;;;;9.70;100.00;99405.81;5027861;28;20041;-71
2023/10/28 06:19:00;;;;;;;6.30;2.78;;;;;;;9.70;100.00;99399.69;5035598;28;20061;-71
2023/10/28 06:21:27;;;;;;;6.22;2.83;;;;;;;9.70;100.00;99397.91;5005996;28;20081;-70
2023/10/28 06:23:54;;;;;;;6.20;2.50;;;;;;;9.71;100.00;99402.25;5024850;28;20071;-72
2023/10/28 06:26:21;;;;;;;4.60;2.45;;;;;;;9.72;100.00;99400.44;5026961;28;20070;-71
2023/10/28 06:28:48;;;;;;;6.25;2.40;;;;;;;9.72;100.00;99403.94;5013640;28;20404;-71
2023/10/28 06:31:16;;;;;;;5.53;2.50;;;;;;;9.70;100.00;99405.81;5021446;28;20037;-71
2023/10/28 06:33:43;;;;;;;7.57;2.72;;;;;;;9.70;100.00;99403.16;5021368;28;20128;-71
2023/10/28 06:36:10;;;;;;;7.90;2.97;;;;;;;9.72;100.00;99409.22;5024351;28;20052;-71
2023/10/28 06:38:37;;;;;;;9.07;3.35;;;;;;;9.74;100.00;99406.50;5024899;28;20037;-71
2023/10/28 06:41:04;;;;;;;5.53;2.55;;;;;;;9.73;100.00;99410.06;5023556;28;20045;-71
2023/10/28 06:43:31;;;;;;;5.22;2.63;;;;;;;9.74;100.00;99417.03;5025780;28;20065;-71
2023/10/28 06:45:59;;;;;;;5.97;2.65;;;;;;;9.74;100.00;99411.75;5025479;28;20055;-71
2023/10/28 06:48:26;;;;;;;6.32;2.50;;;;;;;9.75;100.00;99414.34;5022577;28;20045;-72
2023/10/28 06:50:53;;;;;;;5.85;2.72;;;;;;;9.77;100.00;99419.50;5026060;28;20076;-73
2023/10/28 06:53:21;;;;;;;5.50;2.70;;;;;;;9.77;100.00;99417.72;5027160;28;20072;-71
2023/10/28 06:55:49;;;;;;;7.85;2.90;;;;;;;9.81;100.00;99410.53;5027429;28;20116;-72
2023/10/28 06:58:16;;;;;;;5.70;2.30;;;;;;;9.91;100.00;99418.81;5042250;28;20096;-72
2023/10/28 07:00:45;;;;;;;7.22;2.63;;;;;;;9.95;100.00;99418.59;5025902;28;20124;-72
2023/10/28 07:03:14;;;;;;;6.18;2.33;;;;;;;9.98;100.00;99417.56;5014296;28;20106;-72
2023/10/28 07:05:41;;;;;;;4.78;2.65;;;;;;;10.05;100.00;99415.47;5017038;28;20040;-71
2023/10/28 07:08:08;;;;;;;7.50;2.45;;;;;;;10.12;100.00;99405.50;5019584;28;20045;-71
2023/10/28 07:10:37;;;;;;;5.25;2.42;;;;;;;10.20;100.00;99411.22;5025477;28;20048;-70
2023/10/28 07:13:04;;;;;;;7.65;2.60;;;;;;;10.24;100.00;99415.41;5024470;28;20511;-70
2023/10/28 07:15:32;;;;;;;4.55;2.42;;;;;;;10.30;100.00;99416.88;5047972;28;20706;-70
2023/10/28 07:18:01;;;;;;;6.45;2.10;;;;;;;10.32;100.00;99412.38;5034170;28;20049;-71
2023/10/28 07:20:28;;;;;;;7.95;2.40;;;;;;;10.37;100.00;99407.72;5009287;28;20051;-71
2023/10/28 07:23:02;;;;;;;3.88;2.28;;;;;;;10.41;100.00;99410.13;5038524;28;20052;-71
2023/10/28 07:25:30;;;;;;;5.57;2.17;;;;;;;10.46;100.00;99422.22;5019162;28;20061;-71
2023/10/28 07:27:59;;;;;;;4.53;1.90;;;;;;;10.50;100.00;99415.84;5013191;28;20155;-71
2023/10/28 07:30:26;;;;;;;5.80;2.15;;;;;;;10.55;100.00;99425.22;5017726;28;20052;-71
2023/10/28 07:32:54;;;;;;;6.65;2.17;;;;;;;10.59;100.00;99423.25;5040962;28;20057;-71
2023/10/28 07:35:21;;;;;;;3.47;1.75;;;;;;;10.67;100.00;99428.13;5028250;28;20100;-71
2023/10/28 07:37:48;;;;;;;6.43;2.42;;;;;;;10.71;100.00;99427.06;5015663;28;20034;-72
2023/10/28 07:40:15;;;;;;;4.85;2.20;;;;;;;10.75;100.00;99438.28;5024595;28;20099;-71
2023/10/28 07:42:42;;;;;;;11.82;5.15;;;;;;;10.78;100.00;99438.97;5022517;28;20124;-71
2023/10/28 07:45:09;;;;;;;7.35;4.47;;;;;;;10.83;100.00;99449.25;5019468;28;20045;-71
2023/10/28 07:47:36;;;;;;;7.63;3.22;;;;;;;10.82;100.00;99451.06;5016138;28;20038;-71
2023/10/28 07:50:04;;;;;;;4.40;3.05;;;;;;;10.81;100.00;99449.34;5013008;28;20688;-72
2023/10/28 07:52:31;;;;;;;6.05;3.35;;;;;;;10.78;100.00;99451.31;5019027;28;21091;-73
2023/10/28 07:54:59;;;;;;;5.32;3.00;;;;;;;10.71;100.00;99448.97;5038157;28;20669;-72
2023/10/28 07:57:27;;;;;;;4.03;2.20;;;;;;;10.70;100.00;99456.97;5030120;28;20457;-72
2023/10/28 07:59:55;;;;;;;4.47;2.00;;;;;;;10.71;100.00;99453.41;5025630;28;20055;-72
2023/10/28 08:02:22;;;;;;;4.68;2.40;;;;;;;10.75;100.00;99457.56;5009854;28;20045;-72
2023/10/28 08:04:54;;;;;;;6.97;2.55;;;;;;;10.81;100.00;99456.38;5021303;28;20654;-72
2023/10/28 08:07:21;;;;;;;8.85;3.92;;;;;;;10.88;100.00;99461.25;5027604;28;20050;-72
2023/10/28 08:09:48;;;;;;;11.18;4.28;;;;;;;10.96;100.00;99463.50;5024792;28;20050;-72
2023/10/28 08:12:15;;;;;;;8.13;3.70;;;;;;;10.99;100.00;99459.84;5008777;28;20212;-72
2023/10/28 08:14:48;;;;;;;6.22;2.30;;;;;;;11.02;100.00;99463.16;5009958;28;20038;-72
2023/10/28 08:17:16;;;;;;;9.88;3.47;;;;;;;11.03;100.00;99471.94;5013814;28;20041;-73
2023/10/28 08:19:43;;;;;;;9.15;3.30;;;;;;;11.04;100.00;99460.41;5026510;28;20117;-72
2023/10/28 08:22:12;;;;;;;14.40;4.32;;;;;;;11.08;100.00;99463.75;5025245;28;20378;-72
2023/10/28 08:24:41;;;;;;;7.65;2.90;;;;;;;11.16;100.00;99469.47;5027790;28;20405;-71
2023/10/28 08:27:08;;;;;;;7.03;2.88;;;;;;;11.25;100.00;99468.97;5028068;28;20128;-72
2023/10/28 08:29:35;;;;;;;9.57;4.53;;;;;;;11.33;100.00;99461.47;5026414;28;20751;-72
2023/10/28 08:32:03;;;;;;;6.03;2.60;;;;;;;11.40;100.00;99472.53;5007624;28;20074;-72
2023/10/28 08:34:30;;;;;;;10.57;3.40;;;;;;;11.47;100.00;99468.63;5014467;28;20437;-72
2023/10/28 08:36:57;;;;;;;3.88;1.60;;;;;;;11.57;100.00;99470.72;5016737;28;20092;-72
2023/10/28 08:39:25;;;;;;;5.20;2.00;;;;;;;11.64;100.00;99475.59;5012546;28;20512;-72
2023/10/28 08:41:54;;;;;;;3.17;1.52;;;;;;;11.74;100.00;99478.56;5042046;28;20044;-72
2023/10/28 08:44:27;;;;;;;6.82;1.83;;;;;;;11.81;100.00;99484.31;5019976;28;20081;-72
2023/10/28 08:46:55;;;;;;;3.75;1.45;;;;;;;11.89;100.00;99490.03;5028726;28;20073;-72
2023/10/28 08:49:23;;;;;;;4.25;1.50;;;;;;;11.97;100.00;99486.94;5026965;28;20253;-71
2023/10/28 08:51:58;;;;;;;5.20;1.23;;;;;;;12.01;100.00;99485.88;5041535;28;20225;-72
2023/10/28 08:54:28;;;;;;;4.70;1.33;;;;;;;12.06;100.00;99485.59;5024343;28;20041;-73
2023/10/28 08:56:58;;;;;;;5.32;1.48;;;;;;;12.07;100.00;99487.31;5039744;28;20051;-71
2023/10/28 08:59:27;;;;;;;4.03;1.25;;;;;;;12.11;100.00;99492.31;5026325;28;20053;-71
2023/10/28 09:01:57;;;;;;;5.25;1.48;;;;;;;12.15;100.00;99492.16;5026770;28;20128;-71
2023/10/28 09:04:24;;;;;;;4.78;1.48;;;;;;;12.14;100.00;99493.91;5031616;28;20051;-72
2023/10/28 09:06:52;;;;;;;4.75;1.40;;;;;;;12.15;100.00;99505.34;5021536;28;20509;-72
2023/10/28 09:09:22;;;;;;;5.85;1.15;;;;;;;12.15;100.00;99500.06;5022158;28;20046;-72
2023/10/28 09:11:59;;;;;;;3.83;1.40;;;;;;;12.20;100.00;99508.56;5041188;28;20046;-72
2023/10/28 09:14:26;;;;;;;8.93;1.70;;;;;;;12.27;100.00;99507.25;5025865;28;20302;-72
2023/10/28 09:16:55;;;;;;;4.05;1.30;;;;;;;12.32;100.00;99499.06;5043084;28;20041;-72
2023/10/28 09:19:22;;;;;;;5.97;1.40;;;;;;;12.33;100.00;99506.03;5044376;28;20043;-72
2023/10/28 09:21:50;;;;;;;3.47;1.33;;;;;;;12.34;100.00;99518.31;5045938;28;20064;-72
2023/10/28 09:24:17;;;;;;;3.78;1.40;;;;;;;12.34;100.00;99516.56;5017650;28;20521;-72
2023/10/28 09:26:46;;;;;;;3.65;1.25;;;;;;;12.35;100.00;99518.25;5023723;28;20096;-73
2023/10/28 09:29:30;;;;;;;5.07;1.30;;;;;;;12.43;100.00;99523.94;5019299;28;20037;-72
2023/10/28 09:32:08;;;;;;;5.80;1.35;;;;;;;12.48;100.00;99522.78;5026812;28;20746;-71
2023/10/28 09:34:38;;;;;;;5.32;1.70;;;;;;;12.54;100.00;99515.34;5035232;28;20049;-72
2023/10/28 09:37:07;;;;;;;6.25;1.40;;;;;;;12.64;100.00;99520.97;5014376;28;20046;-73
2023/10/28 09:39:36;;;;;;;4.32;1.27;;;;;;;12.77;100.00;99515.78;5012125;28;20129;-72
2023/10/28 09:42:04;;;;;;;8.05;1.50;;;;;;;12.87;100.00;99514.28;5026137;28;20041;-72
2023/10/28 09:44:31;;;;;;;4.30;1.35;;;;;;;13.02;100.00;99522.22;5032289;28;20408;-72
2023/10/28 09:47:05;;;;;;;5.53;1.60;;;;;;;13.16;100.00;99516.06;5042169;28;20053;-72
2023/10/28 09:49:37;;;;;;;5.43;1.38;;;;;;;13.30;100.00;99510.75;5025917;28;20049;-72
2023/10/28 09:52:11;;;;;;;8.77;1.63;;;;;;;13.38;100.00;99504.97;5004513;28;1059337;-73
2023/10/28 09:54:43;;;;;;;3.40;1.10;;;;;;;13.58;100.00;99508.19;5025523;28;20092;-74
2023/10/28 09:57:11;;;;;;;4.75;1.42;;;;;;;13.60;100.00;99501.84;5026537;28;20070;-74
2023/10/28 09:59:44;;;;;;;5.03;1.30;;;;;;;13.69;100.00;99502.19;5028657;28;20075;-72
2023/10/28 10:02:34;;;;;;;4.97;1.33;;;;;;;13.80;100.00;99503.22;5008738;28;20129;-72
2023/10/28 10:05:11;;;;;;;6.05;1.40;;;;;;;13.86;100.00;99503.75;5034870;28;20050;-73
2023/10/28 10:07:39;;;;;;;5.13;1.27;;;;;;;13.79;100.00;99511.22;5024210;28;20837;-72
2023/10/28 10:10:15;;;;;;;4.45;1.35;;;;;;;13.74;100.00;99511.53;5026018;28;20115;-73
2023/10/28 10:13:00;;;;;;;7.50;1.65;;;;;;;13.70;100.00;99506.53;5025056;28;20116;-71
2023/10/28 10:15:43;;;;;;;6.13;1.30;;;;;;;13.66;100.00;99519.13;5031424;28;20065;-72
2023/10/28 10:18:29;;;;;;;7.72;1.60;;;;;;;13.68;100.00;99509.28;5004577;28;20449;-72
2023/10/28 10:21:11;;;;;;;5.25;1.20;;;;;;;13.71;100.00;99521.47;5021874;28;20060;-72
2023/10/28 10:23:54;;;;;;;5.20;1.30;;;;;;;13.72;100.00;99520.53;5020978;28;20552;-72
2023/10/28 10:26:24;;;;;;;3.67;1.23;;;;;;;13.70;100.00;99517.13;5035777;28;20087;-72
2023/10/28 10:28:59;;;;;;;7.22;1.50;;;;;;;13.65;100.00;99520.94;5024837;28;20041;-71
2023/10/28 10:31:38;;;;;;;4.40;1.15;;;;;;;13.64;100.00;99511.28;5045413;28;20576;-72
2023/10/28 10:34:09;;;;;;;6.32;1.20;;;;;;;13.77;100.00;99508.69;5024420;28;20075;-72
2023/10/28 10:36:41;;;;;;;5.15;1.10;;;;;;;14.10;100.00;99504.78;5022619;28;20095;-73
2023/10/28 10:39:20;;;;;;;3.70;1.27;;;;;;;14.32;100.00;99513.09;5028336;28;20042;-73
2023/10/28 10:41:54;;;;;;;6.97;1.25;;;;;;;14.35;100.00;99505.78;5019956;28;20306;-74
2023/10/28 10:44:32;;;;;;;5.32;1.20;;;;;;;14.35;99.23;99507.59;5014633;28;20506;-73
2023/10/28 10:47:04;;;;;;;5.47;1.13;;;;;;;14.51;99.13;99502.94;5030395;28;20106;-73
2023/10/28 10:49:32;;;;;;;5.85;1.10;;;;;;;14.67;98.96;99504.59;5021071;28;20132;-73
2023/10/28 10:52:05;;;;;;;4.38;1.20;;;;;;;14.77;95.44;99512.75;5040199;28;20524;-72
2023/10/28 10:54:46;;;;;;;6.57;1.67;;;;;;;14.82;93.84;99516.78;5044951;28;20484;-73
2023/10/28 10:57:18;;;;;;;5.60;1.23;;;;;;;14.92;90.92;99514.38;5041694;28;20048;-72
2023/10/28 10:59:49;;;;;;;6.95;1.27;;;;;;;14.92;92.82;99511.72;5016606;28;20042;-73
2023/10/28 11:02:21;;;;;;;4.47;1.40;;;;;;;14.94;91.55;99523.06;5023004;28;20045;-72
2023/10/28 11:04:50;;;;;;;5.88;1.48;;;;;;;15.03;90.45;99513.59;5018625;28;20152;-73
2023/10/28 11:07:18;;;;;;;4.00;1.52;;;;;;;15.12;90.08;99520.91;5018133;28;20080;-73
2023/10/28 11:09:50;;;;;;;6.43;1.33;;;;;;;15.14;91.38;99516.34;5022478;28;20484;-72
2023/10/28 11:12:26;;;;;;;4.75;1.30;;;;;;;15.18;91.44;99509.88;5005760;28;20221;-73
2023/10/28 11:14:57;;;;;;;4.75;1.27;;;;;;;15.16;90.26;99518.91;5015219;28;20044;-72
2023/10/28 11:17:27;;;;;;;5.95;1.50;;;;;;;15.18;90.98;99511.66;5022460;28;20048;-72
2023/10/28 11:20:03;;;;;;;5.15;1.20;;;;;;;15.21;91.06;99511.47;5020839;28;20560;-73
2023/10/28 11:22:33;;;;;;;5.30;1.38;;;;;;;15.20;88.62;99510.63;5002643;28;20049;-72
2023/10/28 11:25:07;;;;;;;6.53;1.67;;;;;;;15.13;89.56;99508.50;5021861;28;20504;-72
2023/10/28 11:27:38;;;;;;;5.63;1.20;;;;;;;15.07;91.15;99505.31;5005086;28;20049;-72
2023/10/28 11:30:09;;;;;;;6.70;1.60;;;;;;;15.04;90.07;99515.28;5014466;28;20109;-72
2023/10/28 11:32:42;;;;;;;6.40;1.33;;;;;;;14.95;89.80;99500.03;5014398;28;20461;-72
2023/10/28 11:35:15;;;;;;;3.33;1.02;;;;;;;14.81;89.37;99503.63;5005929;28;20541;-72
2023/10/28 11:37:45;;;;;;;5.88;1.23;;;;;;;14.67;89.65;99499.28;5023777;28;20051;-72